sensor_id;sensor_type;location;lat;lon;timestamp;temperature;humidity
11122;DHT22;5615;49.304;10.576;2023-03-01T00:02:15;-3.00;99.90
11122;DHT22;5615;49.304;10.576;2023-03-01T00:04:41;-3.10;99.90
11122;DHT22;5615;49.304;10.576;2023-03-01T00:07:08;-3.10;99.90
11122;DHT22;5615;49.304;10.576;2023-03-01T00:09:36;-3.00;99.90
11122;DHT22;5615;49.304;10.576;2023-03-01T00:12:03;-2.90;99.90
11122;DHT22;5615;49.304;10.576;2023-03-01T00:14:31;-2.90;99.90
11122;DHT22;5615;49.304;10.576;2023-03-01T00:16:59;-3.00;99.90
11122;DHT22;5615;49.304;10.576;2023-03-01T00:19:25;-3.00;99.90
11122;DHT22;5615;49.304;10.576;2023-03-01T00:21:52;-3.00;99.90
11122;DHT22;5615;49.304;10.576;2023-03-01T00:24:18;-2.90;99.90
11122;DHT22;5615;49.304;10.576;2023-03-01T00:26:45;-2.80;99.90
11122;DHT22;5615;49.304;10.576;2023-03-01T00:29:12;-2.90;99.90
11122;DHT22;5615;49.304;10.576;2023-03-01T00:31:39;-2.90;99.90
11122;DHT22;5615;49.304;10.576;2023-03-01T00:34:06;-2.90;99.90
11122;DHT22;5615;49.304;10.576;2023-03-01T00:36:34;-2.90;99.90
11122;DHT22;5615;49.304;10.576;2023-03-01T00:39:03;-2.90;99.90
11122;DHT22;5615;49.304;10.576;2023-03-01T00:41:29;-2.90;99.90
11122;DHT22;5615;49.304;10.576;2023-03-01T00:43:56;-2.90;99.90
11122;DHT22;5615;49.304;10.576;2023-03-01T00:46:24;-2.90;99.90
11122;DHT22;5615;49.304;10.576;2023-03-01T00:48:53;-2.90;99.90
11122;DHT22;5615;49.304;10.576;2023-03-01T00:51:22;-3.10;99.90
11122;DHT22;5615;49.304;10.576;2023-03-01T00:53:52;-3.10;99.90
11122;DHT22;5615;49.304;10.576;2023-03-01T00:56:19;-3.00;99.90
11122;DHT22;5615;49.304;10.576;2023-03-01T00:58:46;-3.00;99.90
11122;DHT22;5615;49.304;10.576;2023-03-01T01:01:15;-3.00;99.90
11122;DHT22;5615;49.304;10.576;2023-03-01T01:03:44;-3.00;99.90
11122;DHT22;5615;49.304;10.576;2023-03-01T01:06:18;-3.00;99.90
11122;DHT22;5615;49.304;10.576;2023-03-01T01:08:45;-3.00;99.90
11122;DHT22;5615;49.304;10.576;2023-03-01T01:11:12;-3.00;99.90
11122;DHT22;5615;49.304;10.576;2023-03-01T01:13:39;-3.10;99.90
11122;DHT22;5615;49.304;10.576;2023-03-01T01:16:07;-3.20;99.90
11122;DHT22;5615;49.304;10.576;2023-03-01T01:18:33;-3.20;99.90
11122;DHT22;5615;49.304;10.576;2023-03-01T01:21:04;-3.30;99.90
11122;DHT22;5615;49.304;10.576;2023-03-01T01:23:33;-3.30;99.90
11122;DHT22;5615;49.304;10.576;2023-03-01T01:26:04;-3.20;99.90
11122;DHT22;5615;49.304;10.576;2023-03-01T01:28:31;-3.30;99.90
11122;DHT22;5615;49.304;10.576;2023-03-01T01:30:57;-3.40;99.90
11122;DHT22;5615;49.304;10.576;2023-03-01T01:33:24;-3.40;99.90
11122;DHT22;5615;49.304;10.576;2023-03-01T01:35:50;-3.50;99.90
11122;DHT22;5615;49.304;10.576;2023-03-01T01:38:17;-3.50;99.90
11122;DHT22;5615;49.304;10.576;2023-03-01T01:40:46;-3.50;99.90
11122;DHT22;5615;49.304;10.576;2023-03-01T01:43:18;-3.40;99.90
11122;DHT22;5615;49.304;10.576;2023-03-01T01:45:45;-3.40;99.90
11122;DHT22;5615;49.304;10.576;2023-03-01T01:48:14;-3.30;99.90
11122;DHT22;5615;49.304;10.576;2023-03-01T01:50:41;-3.40;99.90
11122;DHT22;5615;49.304;10.576;2023-03-01T01:53:12;-3.40;99.90
11122;DHT22;5615;49.304;10.576;2023-03-01T01:55:43;-3.50;99.90
11122;DHT22;5615;49.304;10.576;2023-03-01T01:58:15;-3.60;99.90
11122;DHT22;5615;49.304;10.576;2023-03-01T02:00:43;-3.60;99.90
11122;DHT22;5615;49.304;10.576;2023-03-01T02:03:13;-3.60;99.90
11122;DHT22;5615;49.304;10.576;2023-03-01T02:05:47;-3.70;99.90
11122;DHT22;5615;49.304;10.576;2023-03-01T02:08:16;-3.70;99.90
11122;DHT22;5615;49.304;10.576;2023-03-01T02:10:45;-3.70;99.90
11122;DHT22;5615;49.304;10.576;2023-03-01T02:13:13;-3.70;99.90
11122;DHT22;5615;49.304;10.576;2023-03-01T02:15:41;-3.80;99.90
11122;DHT22;5615;49.304;10.576;2023-03-01T02:18:10;-3.80;99.90
11122;DHT22;5615;49.304;10.576;2023-03-01T02:20:43;-3.80;99.90
11122;DHT22;5615;49.304;10.576;2023-03-01T02:23:11;-3.70;99.90
11122;DHT22;5615;49.304;10.576;2023-03-01T02:25:45;-3.70;99.90
11122;DHT22;5615;49.304;10.576;2023-03-01T02:28:23;-3.70;99.90
11122;DHT22;5615;49.304;10.576;2023-03-01T02:30:50;-3.70;99.90
11122;DHT22;5615;49.304;10.576;2023-03-01T02:33:36;-3.80;99.90
11122;DHT22;5615;49.304;10.576;2023-03-01T02:36:06;-3.70;99.90
11122;DHT22;5615;49.304;10.576;2023-03-01T02:38:34;-3.80;99.90
11122;DHT22;5615;49.304;10.576;2023-03-01T02:41:02;-3.80;99.90
11122;DHT22;5615;49.304;10.576;2023-03-01T02:43:33;-3.80;99.90
11122;DHT22;5615;49.304;10.576;2023-03-01T02:46:06;-3.80;99.90
11122;DHT22;5615;49.304;10.576;2023-03-01T02:48:41;-3.80;99.90
11122;DHT22;5615;49.304;10.576;2023-03-01T02:51:17;-3.90;99.90
11122;DHT22;5615;49.304;10.576;2023-03-01T02:53:55;-4.10;99.90
11122;DHT22;5615;49.304;10.576;2023-03-01T02:56:23;-4.10;99.90
11122;DHT22;5615;49.304;10.576;2023-03-01T02:58:51;-4.20;99.90
11122;DHT22;5615;49.304;10.576;2023-03-01T03:01:19;-4.10;99.90
11122;DHT22;5615;49.304;10.576;2023-03-01T03:03:46;-4.10;99.90
11122;DHT22;5615;49.304;10.576;2023-03-01T03:06:13;-4.20;99.90
11122;DHT22;5615;49.304;10.576;2023-03-01T03:08:39;-4.20;99.90
11122;DHT22;5615;49.304;10.576;2023-03-01T03:11:06;-4.20;99.90
11122;DHT22;5615;49.304;10.576;2023-03-01T03:13:32;-4.20;99.90
11122;DHT22;5615;49.304;10.576;2023-03-01T03:16:02;-4.20;99.90
11122;DHT22;5615;49.304;10.576;2023-03-01T03:18:29;-4.30;99.90
11122;DHT22;5615;49.304;10.576;2023-03-01T03:20:56;-4.30;99.90
11122;DHT22;5615;49.304;10.576;2023-03-01T03:23:23;-4.40;99.90
11122;DHT22;5615;49.304;10.576;2023-03-01T03:25:50;-4.40;99.90
11122;DHT22;5615;49.304;10.576;2023-03-01T03:28:17;-4.40;99.90
11122;DHT22;5615;49.304;10.576;2023-03-01T03:30:44;-4.40;99.90
11122;DHT22;5615;49.304;10.576;2023-03-01T03:33:13;-4.50;99.90
11122;DHT22;5615;49.304;10.576;2023-03-01T03:35:42;-4.50;99.90
11122;DHT22;5615;49.304;10.576;2023-03-01T03:38:11;-4.60;99.90
11122;DHT22;5615;49.304;10.576;2023-03-01T03:40:43;-4.60;99.90
11122;DHT22;5615;49.304;10.576;2023-03-01T03:43:12;-4.70;99.90
11122;DHT22;5615;49.304;10.576;2023-03-01T03:45:39;-4.70;99.90
11122;DHT22;5615;49.304;10.576;2023-03-01T03:48:08;-4.60;99.90
11122;DHT22;5615;49.304;10.576;2023-03-01T03:50:37;-4.60;99.90
11122;DHT22;5615;49.304;10.576;2023-03-01T03:53:06;-4.20;99.90
11122;DHT22;5615;49.304;10.576;2023-03-01T03:55:33;-4.20;99.90
11122;DHT22;5615;49.304;10.576;2023-03-01T03:58:02;-4.30;99.90
11122;DHT22;5615;49.304;10.576;2023-03-01T04:00:33;-4.40;99.90
11122;DHT22;5615;49.304;10.576;2023-03-01T04:03:00;-4.40;99.90
11122;DHT22;5615;49.304;10.576;2023-03-01T04:05:27;-4.40;99.90
11122;DHT22;5615;49.304;10.576;2023-03-01T04:07:55;-4.50;99.90
11122;DHT22;5615;49.304;10.576;2023-03-01T04:10:28;-4.40;99.90
11122;DHT22;5615;49.304;10.576;2023-03-01T04:12:55;-4.40;99.90
11122;DHT22;5615;49.304;10.576;2023-03-01T04:15:23;-4.50;99.90
11122;DHT22;5615;49.304;10.576;2023-03-01T04:17:51;-4.50;99.90
11122;DHT22;5615;49.304;10.576;2023-03-01T04:20:21;-4.60;99.90
11122;DHT22;5615;49.304;10.576;2023-03-01T04:22:51;-4.50;99.90
11122;DHT22;5615;49.304;10.576;2023-03-01T04:25:20;-4.40;99.90
11122;DHT22;5615;49.304;10.576;2023-03-01T04:27:46;-4.50;99.90
11122;DHT22;5615;49.304;10.576;2023-03-01T04:30:13;-4.50;99.90
11122;DHT22;5615;49.304;10.576;2023-03-01T04:32:40;-4.50;99.90
11122;DHT22;5615;49.304;10.576;2023-03-01T04:35:07;-4.50;99.90
11122;DHT22;5615;49.304;10.576;2023-03-01T04:37:34;-4.60;99.90
11122;DHT22;5615;49.304;10.576;2023-03-01T04:40:01;-4.60;99.90
11122;DHT22;5615;49.304;10.576;2023-03-01T04:42:38;-4.50;99.90
11122;DHT22;5615;49.304;10.576;2023-03-01T04:45:06;-4.40;99.90
11122;DHT22;5615;49.304;10.576;2023-03-01T04:47:38;-4.50;99.90
11122;DHT22;5615;49.304;10.576;2023-03-01T04:50:06;-4.40;99.90
11122;DHT22;5615;49.304;10.576;2023-03-01T04:52:33;-4.60;99.90
11122;DHT22;5615;49.304;10.576;2023-03-01T04:55:00;-4.60;99.90
11122;DHT22;5615;49.304;10.576;2023-03-01T04:57:27;-4.60;99.90
11122;DHT22;5615;49.304;10.576;2023-03-01T04:59:55;-4.50;99.90
11122;DHT22;5615;49.304;10.576;2023-03-01T05:02:21;-4.70;99.90
11122;DHT22;5615;49.304;10.576;2023-03-01T05:04:48;-4.60;99.90
11122;DHT22;5615;49.304;10.576;2023-03-01T05:07:15;-4.50;99.90
11122;DHT22;5615;49.304;10.576;2023-03-01T05:09:45;-4.50;99.90
11122;DHT22;5615;49.304;10.576;2023-03-01T05:12:11;-4.60;99.90
11122;DHT22;5615;49.304;10.576;2023-03-01T05:14:38;-4.50;99.90
11122;DHT22;5615;49.304;10.576;2023-03-01T05:17:06;-4.60;99.90
11122;DHT22;5615;49.304;10.576;2023-03-01T05:19:33;-4.50;99.90
11122;DHT22;5615;49.304;10.576;2023-03-01T05:22:00;-4.40;99.90
11122;DHT22;5615;49.304;10.576;2023-03-01T05:24:32;-4.50;99.90
11122;DHT22;5615;49.304;10.576;2023-03-01T05:26:59;-4.50;99.90
11122;DHT22;5615;49.304;10.576;2023-03-01T05:29:27;-4.50;99.90
11122;DHT22;5615;49.304;10.576;2023-03-01T05:31:54;-4.50;99.90
11122;DHT22;5615;49.304;10.576;2023-03-01T05:34:24;-4.60;99.90
11122;DHT22;5615;49.304;10.576;2023-03-01T05:36:52;-4.60;99.90
11122;DHT22;5615;49.304;10.576;2023-03-01T05:39:20;-4.60;99.90
11122;DHT22;5615;49.304;10.576;2023-03-01T05:41:47;-4.60;99.90
11122;DHT22;5615;49.304;10.576;2023-03-01T05:44:14;-4.50;99.90
11122;DHT22;5615;49.304;10.576;2023-03-01T05:46:41;-4.50;99.90
11122;DHT22;5615;49.304;10.576;2023-03-01T05:49:07;-4.50;99.90
11122;DHT22;5615;49.304;10.576;2023-03-01T05:51:35;-4.60;99.90
11122;DHT22;5615;49.304;10.576;2023-03-01T05:54:02;-4.60;99.90
11122;DHT22;5615;49.304;10.576;2023-03-01T05:56:32;-4.70;99.90
11122;DHT22;5615;49.304;10.576;2023-03-01T05:58:59;-4.50;99.90
11122;DHT22;5615;49.304;10.576;2023-03-01T06:01:26;-4.50;99.90
11122;DHT22;5615;49.304;10.576;2023-03-01T06:03:53;-4.50;99.90
11122;DHT22;5615;49.304;10.576;2023-03-01T06:06:19;-4.40;99.90
11122;DHT22;5615;49.304;10.576;2023-03-01T06:08:47;-4.50;99.90
11122;DHT22;5615;49.304;10.576;2023-03-01T06:11:14;-4.40;99.90
11122;DHT22;5615;49.304;10.576;2023-03-01T06:13:41;-4.40;99.90
11122;DHT22;5615;49.304;10.576;2023-03-01T06:16:08;-4.30;99.90
11122;DHT22;5615;49.304;10.576;2023-03-01T06:18:35;-4.30;99.90
11122;DHT22;5615;49.304;10.576;2023-03-01T06:21:02;-4.30;99.90
11122;DHT22;5615;49.304;10.576;2023-03-01T06:23:29;-4.20;99.90
11122;DHT22;5615;49.304;10.576;2023-03-01T06:25:57;-4.20;99.90
11122;DHT22;5615;49.304;10.576;2023-03-01T06:28:24;-4.10;99.90
11122;DHT22;5615;49.304;10.576;2023-03-01T06:30:50;-4.10;99.90
11122;DHT22;5615;49.304;10.576;2023-03-01T06:33:18;-4.10;99.90
11122;DHT22;5615;49.304;10.576;2023-03-01T06:35:45;-4.00;99.90
11122;DHT22;5615;49.304;10.576;2023-03-01T06:38:12;-3.90;99.90
11122;DHT22;5615;49.304;10.576;2023-03-01T06:40:40;-3.90;99.90
11122;DHT22;5615;49.304;10.576;2023-03-01T06:43:08;-3.80;99.90
11122;DHT22;5615;49.304;10.576;2023-03-01T06:45:36;-3.70;99.90
11122;DHT22;5615;49.304;10.576;2023-03-01T06:48:03;-3.60;99.90
11122;DHT22;5615;49.304;10.576;2023-03-01T06:50:30;-3.50;99.90
11122;DHT22;5615;49.304;10.576;2023-03-01T06:52:57;-3.50;99.90
11122;DHT22;5615;49.304;10.576;2023-03-01T06:55:24;-3.40;99.90
11122;DHT22;5615;49.304;10.576;2023-03-01T06:57:54;-3.30;99.90
11122;DHT22;5615;49.304;10.576;2023-03-01T07:00:23;-3.30;99.90
11122;DHT22;5615;49.304;10.576;2023-03-01T07:02:50;-3.10;99.90
11122;DHT22;5615;49.304;10.576;2023-03-01T07:05:17;-3.00;99.90
11122;DHT22;5615;49.304;10.576;2023-03-01T07:07:44;-3.00;99.90
11122;DHT22;5615;49.304;10.576;2023-03-01T07:10:11;-2.80;99.90
11122;DHT22;5615;49.304;10.576;2023-03-01T07:12:38;-2.80;99.90
11122;DHT22;5615;49.304;10.576;2023-03-01T07:15:08;-2.70;99.90
11122;DHT22;5615;49.304;10.576;2023-03-01T07:17:37;-2.50;99.90
11122;DHT22;5615;49.304;10.576;2023-03-01T07:20:04;-2.40;99.90
11122;DHT22;5615;49.304;10.576;2023-03-01T07:22:31;-2.30;99.90
11122;DHT22;5615;49.304;10.576;2023-03-01T07:24:57;-2.20;99.90
11122;DHT22;5615;49.304;10.576;2023-03-01T07:27:24;-2.00;99.90
11122;DHT22;5615;49.304;10.576;2023-03-01T07:29:50;-1.80;99.90
11122;DHT22;5615;49.304;10.576;2023-03-01T07:32:17;-1.80;99.90
11122;DHT22;5615;49.304;10.576;2023-03-01T07:34:45;-1.60;99.90
11122;DHT22;5615;49.304;10.576;2023-03-01T07:37:11;-1.50;99.90
11122;DHT22;5615;49.304;10.576;2023-03-01T07:39:38;-1.40;99.90
11122;DHT22;5615;49.304;10.576;2023-03-01T07:42:04;-1.30;99.90
11122;DHT22;5615;49.304;10.576;2023-03-01T07:44:31;-1.10;99.90
11122;DHT22;5615;49.304;10.576;2023-03-01T07:46:58;-1.10;99.90
11122;DHT22;5615;49.304;10.576;2023-03-01T07:49:24;-1.10;99.90
11122;DHT22;5615;49.304;10.576;2023-03-01T07:51:54;-0.90;99.90
11122;DHT22;5615;49.304;10.576;2023-03-01T07:54:20;-0.90;99.90
11122;DHT22;5615;49.304;10.576;2023-03-01T07:56:47;-0.70;99.90
11122;DHT22;5615;49.304;10.576;2023-03-01T07:59:13;-0.60;99.90
11122;DHT22;5615;49.304;10.576;2023-03-01T08:01:40;-0.50;99.90
11122;DHT22;5615;49.304;10.576;2023-03-01T08:04:07;-0.40;99.90
11122;DHT22;5615;49.304;10.576;2023-03-01T08:06:34;-0.30;99.90
11122;DHT22;5615;49.304;10.576;2023-03-01T08:09:03;-0.20;99.90
11122;DHT22;5615;49.304;10.576;2023-03-01T08:11:29;-0.10;99.90
11122;DHT22;5615;49.304;10.576;2023-03-01T08:13:56;0.10;99.90
11122;DHT22;5615;49.304;10.576;2023-03-01T08:16:23;0.20;99.90
11122;DHT22;5615;49.304;10.576;2023-03-01T08:18:49;0.20;99.90
11122;DHT22;5615;49.304;10.576;2023-03-01T08:21:17;0.40;99.90
11122;DHT22;5615;49.304;10.576;2023-03-01T08:23:44;0.60;99.90
11122;DHT22;5615;49.304;10.576;2023-03-01T08:26:14;0.70;99.90
11122;DHT22;5615;49.304;10.576;2023-03-01T08:28:42;1.00;99.90
11122;DHT22;5615;49.304;10.576;2023-03-01T08:31:17;1.00;99.90
11122;DHT22;5615;49.304;10.576;2023-03-01T08:33:44;1.00;99.90
11122;DHT22;5615;49.304;10.576;2023-03-01T08:36:15;1.20;99.90
11122;DHT22;5615;49.304;10.576;2023-03-01T08:38:42;1.40;99.90
11122;DHT22;5615;49.304;10.576;2023-03-01T08:41:09;1.40;99.90
11122;DHT22;5615;49.304;10.576;2023-03-01T08:43:37;1.50;99.90
11122;DHT22;5615;49.304;10.576;2023-03-01T08:46:04;1.60;99.90
11122;DHT22;5615;49.304;10.576;2023-03-01T08:48:30;1.70;99.90
11122;DHT22;5615;49.304;10.576;2023-03-01T08:50:57;1.90;99.90
11122;DHT22;5615;49.304;10.576;2023-03-01T08:53:32;2.00;99.90
11122;DHT22;5615;49.304;10.576;2023-03-01T08:56:00;2.40;99.90
11122;DHT22;5615;49.304;10.576;2023-03-01T08:58:27;2.50;99.90
11122;DHT22;5615;49.304;10.576;2023-03-01T09:00:56;2.60;99.90
11122;DHT22;5615;49.304;10.576;2023-03-01T09:03:22;2.80;99.90
11122;DHT22;5615;49.304;10.576;2023-03-01T09:05:49;2.80;99.90
11122;DHT22;5615;49.304;10.576;2023-03-01T09:08:16;2.90;99.90
11122;DHT22;5615;49.304;10.576;2023-03-01T09:10:43;3.10;99.90
11122;DHT22;5615;49.304;10.576;2023-03-01T09:13:09;3.40;99.90
11122;DHT22;5615;49.304;10.576;2023-03-01T09:15:37;3.40;99.90
11122;DHT22;5615;49.304;10.576;2023-03-01T09:18:05;3.60;99.90
11122;DHT22;5615;49.304;10.576;2023-03-01T09:20:32;3.90;99.90
11122;DHT22;5615;49.304;10.576;2023-03-01T09:22:59;4.00;99.90
11122;DHT22;5615;49.304;10.576;2023-03-01T09:25:25;4.00;99.90
11122;DHT22;5615;49.304;10.576;2023-03-01T09:27:52;4.10;99.90
11122;DHT22;5615;49.304;10.576;2023-03-01T09:30:19;4.30;99.90
11122;DHT22;5615;49.304;10.576;2023-03-01T09:32:46;4.60;99.90
11122;DHT22;5615;49.304;10.576;2023-03-01T09:35:15;4.60;99.90
11122;DHT22;5615;49.304;10.576;2023-03-01T09:37:41;4.90;99.90
11122;DHT22;5615;49.304;10.576;2023-03-01T09:40:14;4.90;99.90
11122;DHT22;5615;49.304;10.576;2023-03-01T09:42:48;5.10;99.90
11122;DHT22;5615;49.304;10.576;2023-03-01T09:45:26;5.50;99.90
11122;DHT22;5615;49.304;10.576;2023-03-01T09:47:54;5.60;99.60
11122;DHT22;5615;49.304;10.576;2023-03-01T09:50:23;5.80;98.50
11122;DHT22;5615;49.304;10.576;2023-03-01T09:52:58;5.70;97.80
11122;DHT22;5615;49.304;10.576;2023-03-01T09:55:31;6.10;97.60
11122;DHT22;5615;49.304;10.576;2023-03-01T09:58:00;6.20;96.00
11122;DHT22;5615;49.304;10.576;2023-03-01T10:00:36;6.50;95.20
11122;DHT22;5615;49.304;10.576;2023-03-01T10:03:11;6.70;94.80
11122;DHT22;5615;49.304;10.576;2023-03-01T10:05:50;6.60;93.80
11122;DHT22;5615;49.304;10.576;2023-03-01T10:08:31;6.60;94.10
11122;DHT22;5615;49.304;10.576;2023-03-01T10:11:02;6.70;92.90
11122;DHT22;5615;49.304;10.576;2023-03-01T10:13:36;7.10;91.70
11122;DHT22;5615;49.304;10.576;2023-03-01T10:16:10;7.20;91.40
11122;DHT22;5615;49.304;10.576;2023-03-01T10:18:39;7.60;90.40
11122;DHT22;5615;49.304;10.576;2023-03-01T10:21:13;7.50;88.90
11122;DHT22;5615;49.304;10.576;2023-03-01T10:23:41;7.80;86.90
11122;DHT22;5615;49.304;10.576;2023-03-01T10:26:16;8.00;85.00
11122;DHT22;5615;49.304;10.576;2023-03-01T10:28:52;8.40;83.90
11122;DHT22;5615;49.304;10.576;2023-03-01T10:31:25;8.70;80.40
11122;DHT22;5615;49.304;10.576;2023-03-01T10:33:55;8.80;77.10
11122;DHT22;5615;49.304;10.576;2023-03-01T10:36:24;9.10;75.50
11122;DHT22;5615;49.304;10.576;2023-03-01T10:38:52;9.50;72.10
11122;DHT22;5615;49.304;10.576;2023-03-01T10:41:20;10.00;69.30
11122;DHT22;5615;49.304;10.576;2023-03-01T10:43:50;10.40;66.20
11122;DHT22;5615;49.304;10.576;2023-03-01T10:46:25;11.40;61.60
11122;DHT22;5615;49.304;10.576;2023-03-01T10:49:14;11.70;57.20
11122;DHT22;5615;49.304;10.576;2023-03-01T10:51:44;12.20;55.40
11122;DHT22;5615;49.304;10.576;2023-03-01T10:54:18;12.80;54.80
11122;DHT22;5615;49.304;10.576;2023-03-01T10:56:49;12.80;51.50
11122;DHT22;5615;49.304;10.576;2023-03-01T10:59:28;13.00;51.00
11122;DHT22;5615;49.304;10.576;2023-03-01T11:02:08;13.40;49.30
11122;DHT22;5615;49.304;10.576;2023-03-01T11:04:39;14.20;47.80
11122;DHT22;5615;49.304;10.576;2023-03-01T11:07:08;14.30;45.10
11122;DHT22;5615;49.304;10.576;2023-03-01T11:09:35;14.50;42.40
11122;DHT22;5615;49.304;10.576;2023-03-01T11:12:05;14.70;42.20
11122;DHT22;5615;49.304;10.576;2023-03-01T11:14:46;14.90;39.50
11122;DHT22;5615;49.304;10.576;2023-03-01T11:17:16;15.40;39.30
11122;DHT22;5615;49.304;10.576;2023-03-01T11:20:00;15.80;38.30
11122;DHT22;5615;49.304;10.576;2023-03-01T11:22:28;15.80;36.60
11122;DHT22;5615;49.304;10.576;2023-03-01T11:24:56;15.90;37.10
11122;DHT22;5615;49.304;10.576;2023-03-01T11:27:25;16.40;35.80
11122;DHT22;5615;49.304;10.576;2023-03-01T11:29:55;16.40;33.80
11122;DHT22;5615;49.304;10.576;2023-03-01T11:32:26;16.70;32.90
11122;DHT22;5615;49.304;10.576;2023-03-01T11:34:57;16.70;32.20
11122;DHT22;5615;49.304;10.576;2023-03-01T11:37:32;16.40;32.80
11122;DHT22;5615;49.304;10.576;2023-03-01T11:40:10;15.90;31.60
11122;DHT22;5615;49.304;10.576;2023-03-01T11:42:46;17.10;31.90
11122;DHT22;5615;49.304;10.576;2023-03-01T11:45:14;17.90;29.90
11122;DHT22;5615;49.304;10.576;2023-03-01T11:47:56;18.50;28.80
11122;DHT22;5615;49.304;10.576;2023-03-01T11:50:32;18.30;28.50
11122;DHT22;5615;49.304;10.576;2023-03-01T11:53:24;18.70;27.30
11122;DHT22;5615;49.304;10.576;2023-03-01T11:56:01;18.90;26.80
11122;DHT22;5615;49.304;10.576;2023-03-01T11:58:40;17.40;26.10
11122;DHT22;5615;49.304;10.576;2023-03-01T12:01:21;17.80;26.60
11122;DHT22;5615;49.304;10.576;2023-03-01T12:04:03;18.00;26.80
11122;DHT22;5615;49.304;10.576;2023-03-01T12:06:47;18.60;26.70
11122;DHT22;5615;49.304;10.576;2023-03-01T12:09:26;19.00;25.80
11122;DHT22;5615;49.304;10.576;2023-03-01T12:14:59;19.90;24.40
11122;DHT22;5615;49.304;10.576;2023-03-01T12:17:44;20.30;24.20
11122;DHT22;5615;49.304;10.576;2023-03-01T12:20:22;19.60;23.50
11122;DHT22;5615;49.304;10.576;2023-03-01T12:23:10;19.50;23.10
11122;DHT22;5615;49.304;10.576;2023-03-01T12:25:42;19.20;23.20
11122;DHT22;5615;49.304;10.576;2023-03-01T12:28:32;19.70;23.10
11122;DHT22;5615;49.304;10.576;2023-03-01T12:31:20;20.10;22.50
11122;DHT22;5615;49.304;10.576;2023-03-01T12:33:58;20.20;22.40
11122;DHT22;5615;49.304;10.576;2023-03-01T12:36:36;20.70;21.90
11122;DHT22;5615;49.304;10.576;2023-03-01T12:39:20;20.40;22.00
11122;DHT22;5615;49.304;10.576;2023-03-01T12:41:55;21.10;21.80
11122;DHT22;5615;49.304;10.576;2023-03-01T12:44:30;21.50;21.00
11122;DHT22;5615;49.304;10.576;2023-03-01T12:47:14;20.90;20.40
11122;DHT22;5615;49.304;10.576;2023-03-01T12:49:49;21.50;19.90
11122;DHT22;5615;49.304;10.576;2023-03-01T12:52:24;21.20;19.80
11122;DHT22;5615;49.304;10.576;2023-03-01T12:54:56;20.40;20.40
11122;DHT22;5615;49.304;10.576;2023-03-01T12:57:29;21.40;19.70
11122;DHT22;5615;49.304;10.576;2023-03-01T13:00:11;21.90;19.70
11122;DHT22;5615;49.304;10.576;2023-03-01T13:02:49;21.30;18.60
11122;DHT22;5615;49.304;10.576;2023-03-01T13:05:24;22.30;19.70
11122;DHT22;5615;49.304;10.576;2023-03-01T13:07:57;22.50;18.90
11122;DHT22;5615;49.304;10.576;2023-03-01T13:10:31;23.40;18.30
11122;DHT22;5615;49.304;10.576;2023-03-01T13:13:12;23.10;17.00
11122;DHT22;5615;49.304;10.576;2023-03-01T13:15:40;23.00;17.20
11122;DHT22;5615;49.304;10.576;2023-03-01T13:18:28;22.70;17.50
11122;DHT22;5615;49.304;10.576;2023-03-01T13:20:57;23.10;17.80
11122;DHT22;5615;49.304;10.576;2023-03-01T13:23:26;23.50;17.00
11122;DHT22;5615;49.304;10.576;2023-03-01T13:26:08;23.70;16.10
11122;DHT22;5615;49.304;10.576;2023-03-01T13:28:53;23.40;16.20
11122;DHT22;5615;49.304;10.576;2023-03-01T13:34:48;23.60;15.70
11122;DHT22;5615;49.304;10.576;2023-03-01T13:37:27;23.60;15.00
11122;DHT22;5615;49.304;10.576;2023-03-01T13:39:56;23.30;15.40
11122;DHT22;5615;49.304;10.576;2023-03-01T13:42:35;23.10;14.90
11122;DHT22;5615;49.304;10.576;2023-03-01T13:47:52;23.50;15.20
11122;DHT22;5615;49.304;10.576;2023-03-01T13:50:23;24.00;14.50
11122;DHT22;5615;49.304;10.576;2023-03-01T13:52:53;23.80;14.40
11122;DHT22;5615;49.304;10.576;2023-03-01T13:55:27;24.40;15.10
11122;DHT22;5615;49.304;10.576;2023-03-01T13:57:56;25.30;14.10
11122;DHT22;5615;49.304;10.576;2023-03-01T14:00:32;25.20;13.40
11122;DHT22;5615;49.304;10.576;2023-03-01T14:03:19;25.30;13.30
11122;DHT22;5615;49.304;10.576;2023-03-01T14:06:02;25.00;13.00
11122;DHT22;5615;49.304;10.576;2023-03-01T14:08:30;25.30;13.10
11122;DHT22;5615;49.304;10.576;2023-03-01T14:13:58;26.40;12.90
11122;DHT22;5615;49.304;10.576;2023-03-01T14:16:35;26.10;12.30
11122;DHT22;5615;49.304;10.576;2023-03-01T14:19:14;26.10;12.10
11122;DHT22;5615;49.304;10.576;2023-03-01T14:21:42;25.50;12.30
11122;DHT22;5615;49.304;10.576;2023-03-01T14:24:17;25.20;12.50
11122;DHT22;5615;49.304;10.576;2023-03-01T14:26:44;25.80;12.60
11122;DHT22;5615;49.304;10.576;2023-03-01T14:29:24;26.10;11.60
11122;DHT22;5615;49.304;10.576;2023-03-01T14:31:52;25.60;11.60
11122;DHT22;5615;49.304;10.576;2023-03-01T14:34:20;26.00;12.00
11122;DHT22;5615;49.304;10.576;2023-03-01T14:36:47;26.10;11.70
11122;DHT22;5615;49.304;10.576;2023-03-01T14:39:18;25.40;11.90
11122;DHT22;5615;49.304;10.576;2023-03-01T14:41:45;25.20;11.80
11122;DHT22;5615;49.304;10.576;2023-03-01T14:44:16;24.40;12.40
11122;DHT22;5615;49.304;10.576;2023-03-01T14:46:46;25.60;12.60
11122;DHT22;5615;49.304;10.576;2023-03-01T14:49:16;26.00;11.70
11122;DHT22;5615;49.304;10.576;2023-03-01T14:51:51;25.70;11.90
11122;DHT22;5615;49.304;10.576;2023-03-01T14:54:23;25.40;12.20
11122;DHT22;5615;49.304;10.576;2023-03-01T14:56:51;25.80;12.10
11122;DHT22;5615;49.304;10.576;2023-03-01T14:59:24;25.30;11.80
11122;DHT22;5615;49.304;10.576;2023-03-01T15:01:51;25.30;12.20
11122;DHT22;5615;49.304;10.576;2023-03-01T15:04:22;25.20;11.80
11122;DHT22;5615;49.304;10.576;2023-03-01T15:06:51;25.10;12.00
11122;DHT22;5615;49.304;10.576;2023-03-01T15:09:18;24.80;12.10
11122;DHT22;5615;49.304;10.576;2023-03-01T15:11:45;24.80;12.20
11122;DHT22;5615;49.304;10.576;2023-03-01T15:14:28;25.20;12.40
11122;DHT22;5615;49.304;10.576;2023-03-01T15:16:56;24.70;12.50
11122;DHT22;5615;49.304;10.576;2023-03-01T15:19:27;24.40;12.80
11122;DHT22;5615;49.304;10.576;2023-03-01T15:21:55;24.30;12.80
11122;DHT22;5615;49.304;10.576;2023-03-01T15:24:24;24.70;12.50
11122;DHT22;5615;49.304;10.576;2023-03-01T15:26:53;24.50;12.40
11122;DHT22;5615;49.304;10.576;2023-03-01T15:29:25;24.40;12.60
11122;DHT22;5615;49.304;10.576;2023-03-01T15:31:57;23.80;12.80
11122;DHT22;5615;49.304;10.576;2023-03-01T15:34:27;23.50;13.10
11122;DHT22;5615;49.304;10.576;2023-03-01T15:36:56;22.30;13.80
11122;DHT22;5615;49.304;10.576;2023-03-01T15:39:37;22.80;13.90
11122;DHT22;5615;49.304;10.576;2023-03-01T15:42:05;22.50;13.90
11122;DHT22;5615;49.304;10.576;2023-03-01T15:44:34;22.10;14.20
11122;DHT22;5615;49.304;10.576;2023-03-01T15:47:01;21.60;14.50
11122;DHT22;5615;49.304;10.576;2023-03-01T15:49:36;21.30;14.70
11122;DHT22;5615;49.304;10.576;2023-03-01T15:52:04;20.80;15.30
11122;DHT22;5615;49.304;10.576;2023-03-01T15:54:31;20.50;15.80
11122;DHT22;5615;49.304;10.576;2023-03-01T15:56:59;20.00;16.20
11122;DHT22;5615;49.304;10.576;2023-03-01T15:59:26;19.60;16.70
11122;DHT22;5615;49.304;10.576;2023-03-01T16:01:52;18.60;16.80
11122;DHT22;5615;49.304;10.576;2023-03-01T16:04:19;17.90;17.90